首页
METAR-TAF:

METAR-TAF

机场 :

Rhinelander-Oneida County Airport

Rhinelander, 威斯康辛州, 美国

纬度: 45-37-54N, 经度: 089-28-56W, 海拔: 495米

当前天气观测

该预报发布于7分钟前的04:53 UTC
风速4节,风向北转东北
温度 0°C
湿度 93%
气压 1003 hPa
能見度: 8.0公里
多云层高于700英尺
阴天层高于1100英尺
小雪, 轻雾

METAR: KRHI 160453Z AUTO 02004KT 5SM -SN BR BKN007 OVC011 00/M01 A2961 RMK AO2 SLP042 P0000 T00001011

时间: 23:00 (05:00 UTC)

预报

该预报发布于5小时和32分钟前的23:28 UTC
预报有效从16日的 00点(UTC)到 16日的 24点(UTC)
风速6节,风向北转东北
能見度: 4.8公里
阴天层高于700英尺
小雪, 轻雾
短暂存在
从 16日的 00点(UTC)到 16日的 04点(UTC)
能見度: 2.4公里
阴天层高于400英尺
小雪, 轻雾
从 16日的 0500点(UTC)
风速7节,风向,有时为14节阵风
能見度: 1.6公里
阴天层高于700英尺
小阵雪, 轻雾
从 16日的 1400点(UTC)
风速7节,风向,有时为14节阵风
能見度: 10公里
阴天层高于1300英尺
小阵雪
从 16日的 2100点(UTC)
风速6节,风向北转西北
能見度: 10公里
阴天层高于2000英尺
小阵雪

TAF: KRHI 152328Z 1600/1624 02006KT 3SM -SN BR OVC007 TEMPO 1600/1604 1 1/2SM -SN BR OVC004 FM160500 36007G14KT 4SM -SHSN BR OVC007 FM161400 35007G14KT P6SM -SHSN OVC013 FM162100 33006KT P6SM -SHSN OVC020

超过4000个机场的气象观测和天气预报(METAR&TAF报告)。

可查询的气象台以黄色和红色小点在地图上表示。

将鼠标移到小点上方,可查看气象台名称。

然后点击查看天气观测和预报。

如需切换地图:点击带黑十字的绿色按钮放大地图;点击带横线的绿色按钮缩小地图;或者点击绿色箭头查看邻近地区的地图。


METAR-TAF: